Time;durP1;ratioP1;P1;durP2;ratioP2;P2;SDS_P1;SDS_P2;PMS_P1;PMS_P2;Temp;Humidity;BMP_temperature;BMP_pressure;BME280_temperature;BME280_humidity;BME280_pressure;Samples;Min_cycle;Max_cycle;Signal;HPM_P1;HPM_P2
2022/12/08 00:01:48;;;;;;;13.00;7.88;;;;;;;12.89;48.05;100946.38;4878412;29;20459;-62
2022/12/08 00:04:13;;;;;;;15.25;7.68;;;;;;;12.87;47.20;100933.03;4878363;29;20033;-62
2022/12/08 00:09:30;;;;;;;15.40;6.90;;;;;;;12.88;46.67;100932.06;4878269;29;20467;-62
2022/12/08 00:11:57;;;;;;;14.52;7.97;;;;;;;12.87;48.13;100935.72;4877954;29;20128;-62
2022/12/08 00:14:37;;;;;;;12.15;6.90;;;;;;;12.87;48.27;100933.03;4879754;29;20025;-62
2022/12/08 00:17:03;;;;;;;11.25;6.25;;;;;;;12.84;47.64;100933.34;4878315;29;20503;-62
2022/12/08 00:19:29;;;;;;;13.10;6.65;;;;;;;12.84;47.43;100928.81;4877912;29;20084;-62
2022/12/08 00:21:55;;;;;;;10.55;5.57;;;;;;;12.84;48.36;100918.06;4878009;29;20094;-62
2022/12/08 00:24:21;;;;;;;12.07;6.55;;;;;;;12.81;47.33;100918.34;4878710;29;20029;-62
2022/12/08 00:26:47;;;;;;;14.10;6.88;;;;;;;12.83;47.54;100918.22;4878171;29;20168;-63
2022/12/08 00:29:13;;;;;;;14.18;7.40;;;;;;;12.79;48.21;100903.34;4862912;29;20503;-62
2022/12/08 00:31:38;;;;;;;16.13;6.75;;;;;;;12.76;48.25;100898.25;4862430;29;20515;-62
2022/12/08 00:34:04;;;;;;;13.73;6.78;;;;;;;12.76;48.38;100898.25;4877976;29;20038;-62
2022/12/08 00:36:30;;;;;;;12.18;6.85;;;;;;;12.71;47.95;100889.75;4877928;29;20395;-62
2022/12/08 00:38:56;;;;;;;11.98;6.15;;;;;;;12.74;48.54;100889.47;4877956;29;20029;-62
2022/12/08 00:44:08;;;;;;;14.52;6.68;;;;;;;12.68;47.53;100880.16;4878383;29;20194;-62
2022/12/08 00:46:33;;;;;;;10.50;5.35;;;;;;;12.69;48.54;100875.63;4862194;29;20513;-62
2022/12/08 00:48:58;;;;;;;13.98;5.35;;;;;;;12.65;48.19;100875.06;4877796;29;20127;-62
2022/12/08 00:51:24;;;;;;;10.18;5.55;;;;;;;12.62;48.11;100880.69;4877819;29;20033;-62
2022/12/08 00:53:49;;;;;;;14.05;6.22;;;;;;;12.62;47.50;100874.47;4862615;29;20088;-62
2022/12/08 00:56:14;;;;;;;11.43;5.45;;;;;;;12.58;47.68;100873.06;4862778;29;20059;-62
2022/12/08 00:58:40;;;;;;;13.10;6.32;;;;;;;12.55;48.60;100878.72;4862344;29;20052;-62
2022/12/08 01:01:10;;;;;;;11.02;6.13;;;;;;;12.60;47.80;100871.09;4878728;29;20498;-62
2022/12/08 01:03:35;;;;;;;16.55;6.22;;;;;;;12.62;47.94;100874.47;4850887;29;20037;-62
2022/12/08 01:06:04;;;;;;;11.45;5.57;;;;;;;12.62;48.16;100872.63;4865913;29;20052;-62
2022/12/08 01:08:30;;;;;;;7.65;4.68;;;;;;;12.64;47.35;100872.50;4881664;29;20044;-62
2022/12/08 01:10:55;;;;;;;10.23;4.85;;;;;;;12.60;48.06;100871.09;4865345;29;20041;-62
2022/12/08 01:13:21;;;;;;;9.80;5.10;;;;;;;12.61;47.58;100876.34;4882396;29;20044;-62
2022/12/08 01:15:46;;;;;;;11.68;5.13;;;;;;;12.63;47.25;100870.81;4882044;29;20055;-63
2022/12/08 01:18:11;;;;;;;9.32;4.32;;;;;;;12.58;48.33;100862.31;4881103;29;20029;-62
2022/12/08 01:20:37;;;;;;;6.75;3.80;;;;;;;12.61;47.93;100862.06;4895511;29;20061;-62
2022/12/08 01:23:02;;;;;;;11.55;3.75;;;;;;;12.62;48.56;100855.66;4884222;29;20064;-62
2022/12/08 01:25:28;;;;;;;8.50;4.70;;;;;;;12.58;47.51;100851.59;4900784;29;20494;-62
2022/12/08 01:27:53;;;;;;;8.93;4.03;;;;;;;12.62;48.44;100847.59;4868841;29;20032;-62
2022/12/08 01:30:19;;;;;;;6.22;3.30;;;;;;;12.62;48.54;100858.34;4900811;29;20037;-62
2022/12/08 01:32:45;;;;;;;7.25;4.30;;;;;;;12.57;48.18;100850.72;4884577;29;20112;-62
2022/12/08 01:35:11;;;;;;;5.80;3.83;;;;;;;12.59;47.81;100854.13;4869378;29;20029;-63
2022/12/08 01:37:36;;;;;;;6.35;4.03;;;;;;;12.59;47.88;100864.03;4884727;29;20056;-62
2022/12/08 01:40:02;;;;;;;8.13;4.68;;;;;;;12.56;47.95;100850.88;4868644;29;20436;-63
2022/12/08 01:42:28;;;;;;;6.63;4.13;;;;;;;12.58;48.33;100854.25;4884473;29;20498;-62
2022/12/08 01:45:00;;;;;;;4.93;3.38;;;;;;;12.61;47.47;100851.31;4868772;29;20039;-62
2022/12/08 01:47:29;;;;;;;8.60;4.35;;;;;;;12.57;47.91;100850.72;4884880;29;20025;-62
2022/12/08 01:49:54;;;;;;;7.35;4.60;;;;;;;12.59;47.82;100858.66;4885055;29;20403;-62
2022/12/08 01:52:33;;;;;;;7.20;4.13;;;;;;;12.57;47.62;100856.09;4883736;29;20032;-62
2022/12/08 01:55:05;;;;;;;10.30;4.22;;;;;;;12.55;48.78;100858.09;4868155;29;20044;-62
2022/12/08 01:57:43;;;;;;;7.25;4.65;;;;;;;12.59;47.40;100847.91;4884701;29;20051;-62
2022/12/08 02:00:13;;;;;;;11.40;4.45;;;;;;;12.58;48.33;100851.59;4900533;29;20490;-62
2022/12/08 02:03:12;;;;;;;9.68;5.28;;;;;;;12.60;48.36;100863.88;4883877;29;20032;-62
2022/12/08 02:05:39;;;;;;;8.45;4.15;;;;;;;12.59;47.66;100853.28;4883630;29;20048;-62
2022/12/08 02:08:09;;;;;;;8.73;4.25;;;;;;;12.59;48.24;100858.66;4883824;29;20036;-62
2022/12/08 02:10:38;;;;;;;9.73;4.57;;;;;;;12.60;47.83;100854.97;4868846;29;20037;-62
2022/12/08 02:13:06;;;;;;;7.72;4.13;;;;;;;12.64;47.86;100849.19;4882626;29;20044;-63
2022/12/08 02:16:13;;;;;;;6.40;3.33;;;;;;;12.62;48.63;100845.78;4884253;29;20036;-63
2022/12/08 02:18:57;;;;;;;10.55;4.00;;;;;;;12.63;48.13;100846.63;4899701;29;20040;-62
2022/12/08 02:21:51;;;;;;;7.05;4.13;;;;;;;12.62;47.77;100842.22;4899785;29;20063;-62
2022/12/08 02:24:23;;;;;;;6.13;3.88;;;;;;;12.64;47.59;100841.13;4862968;29;20080;-62
2022/12/08 02:27:11;;;;;;;10.77;4.13;;;;;;;12.67;47.64;100835.44;4867345;29;20041;-62
2022/12/08 02:29:37;;;;;;;6.07;3.20;;;;;;;12.67;47.69;100834.63;4883494;29;20570;-62
2022/12/08 02:32:32;;;;;;;4.90;2.88;;;;;;;12.66;48.17;100828.38;4899822;29;20123;-62
2022/12/08 02:35:23;;;;;;;7.75;4.10;;;;;;;12.65;48.17;100825.81;4882335;29;20499;-62
2022/12/08 02:37:56;;;;;;;4.72;2.88;;;;;;;12.66;48.00;100822.16;4899657;29;20043;-62
2022/12/08 02:40:35;;;;;;;5.15;2.97;;;;;;;12.68;47.32;100823.72;4867466;29;20033;-62
2022/12/08 02:43:13;;;;;;;7.72;3.65;;;;;;;12.68;47.36;100820.16;4883704;29;20413;-62
2022/12/08 02:45:44;;;;;;;5.38;3.28;;;;;;;12.65;48.09;100820.44;4882900;29;20032;-62
2022/12/08 02:48:09;;;;;;;6.18;3.20;;;;;;;12.65;47.60;100804.31;4884391;29;20036;-62
2022/12/08 02:50:35;;;;;;;8.77;4.20;;;;;;;12.63;47.87;100800.94;4867780;29;20040;-63
2022/12/08 02:53:02;;;;;;;8.82;4.07;;;;;;;12.63;48.33;100809.00;4882734;29;20036;-63
2022/12/08 02:55:41;;;;;;;7.85;4.70;;;;;;;12.61;48.44;100797.56;4899837;29;20037;-63
2022/12/08 02:58:34;;;;;;;6.47;3.88;;;;;;;12.62;48.49;100801.91;4883634;29;20040;-63
2022/12/08 03:01:19;;;;;;;7.65;3.90;;;;;;;12.58;48.23;100793.31;4884748;29;20036;-63
2022/12/08 03:03:46;;;;;;;8.25;4.00;;;;;;;12.58;48.50;100798.69;4883493;29;20455;-63
2022/12/08 03:06:21;;;;;;;6.90;3.72;;;;;;;12.59;48.33;100791.50;4882522;29;20044;-62
2022/12/08 03:09:08;;;;;;;10.35;4.70;;;;;;;12.58;48.04;100792.47;4900137;29;20157;-62
2022/12/08 03:11:40;;;;;;;12.18;4.35;;;;;;;12.51;48.31;100778.75;4900897;29;20416;-63
2022/12/08 03:14:06;;;;;;;10.13;4.60;;;;;;;12.55;47.97;100784.69;4883922;29;20079;-62
2022/12/08 03:16:33;;;;;;;11.23;5.40;;;;;;;12.60;48.85;100774.34;4866865;29;20044;-62
2022/12/08 03:19:09;;;;;;;13.48;5.80;;;;;;;12.59;48.61;100770.00;4882279;29;20037;-62
2022/12/08 03:21:36;;;;;;;11.82;5.75;;;;;;;12.62;48.22;100772.38;4898446;29;20084;-62
2022/12/08 03:24:05;;;;;;;19.55;6.68;;;;;;;12.59;48.62;100756.56;4883465;29;20169;-62
2022/12/08 03:26:39;;;;;;;14.57;6.93;;;;;;;12.56;47.84;100768.41;4899591;29;20115;-62
2022/12/08 03:29:05;;;;;;;13.73;7.13;;;;;;;12.55;48.56;100760.50;4899016;29;20109;-62
2022/12/08 03:31:32;;;;;;;16.30;7.40;;;;;;;12.55;48.00;100755.97;4900429;29;20551;-63
2022/12/08 03:33:59;;;;;;;18.15;7.65;;;;;;;12.51;48.53;100756.41;4883782;29;20064;-62
2022/12/08 03:36:25;;;;;;;16.35;7.13;;;;;;;12.51;47.92;100751.88;4868563;29;20037;-62
2022/12/08 03:38:52;;;;;;;21.67;8.13;;;;;;;12.54;47.98;100756.13;4883433;29;20032;-62
2022/12/08 03:41:19;;;;;;;17.85;8.73;;;;;;;12.56;48.23;100759.53;4898497;29;20047;-62
2022/12/08 03:43:49;;;;;;;20.75;8.90;;;;;;;12.54;48.41;100756.97;4882015;29;20033;-62
2022/12/08 03:46:15;;;;;;;20.83;8.32;;;;;;;12.55;48.90;100760.50;4882713;29;20040;-63
2022/12/08 03:48:41;;;;;;;20.77;8.15;;;;;;;12.51;48.79;100751.03;4882345;29;20041;-62
2022/12/08 03:51:06;;;;;;;19.45;7.97;;;;;;;12.52;48.08;100744.66;4897174;29;20036;-62
2022/12/08 03:53:32;;;;;;;19.52;9.02;;;;;;;12.49;48.09;100739.59;4897561;29;20028;-62
2022/12/08 03:55:57;;;;;;;25.48;8.75;;;;;;;12.51;48.42;100737.59;4881415;29;20470;-62
2022/12/08 03:58:23;;;;;;;16.80;8.38;;;;;;;12.48;47.78;100732.53;4866121;29;20040;-62
2022/12/08 04:00:48;;;;;;;19.27;8.73;;;;;;;12.44;48.33;100736.47;4898823;29;20088;-62
2022/12/08 04:03:13;;;;;;;14.80;7.53;;;;;;;12.42;47.96;100744.69;4881787;29;20037;-62
2022/12/08 04:05:39;;;;;;;19.63;9.13;;;;;;;12.42;48.50;100747.38;4899737;29;20036;-62
2022/12/08 04:08:04;;;;;;;15.27;8.18;;;;;;;12.40;47.96;100741.28;4899683;29;20047;-62
2022/12/08 04:10:30;;;;;;;15.57;7.32;;;;;;;12.41;49.03;100744.81;4882801;29;20446;-62
2022/12/08 04:12:55;;;;;;;15.82;7.80;;;;;;;12.41;48.39;100736.78;4898129;29;20044;-62
2022/12/08 04:15:21;;;;;;;14.73;7.00;;;;;;;12.42;48.19;100727.72;4882360;29;20040;-62
2022/12/08 04:17:46;;;;;;;12.95;6.93;;;;;;;12.40;48.98;100735.91;4897068;29;20107;-62
2022/12/08 04:20:12;;;;;;;18.13;8.27;;;;;;;12.35;47.96;100724.75;4882805;29;20088;-62
2022/12/08 04:22:37;;;;;;;18.20;7.72;;;;;;;12.37;47.90;100735.38;4898027;29;20110;-63
2022/12/08 04:25:03;;;;;;;14.45;7.50;;;;;;;12.36;47.88;100742.59;4896913;29;20029;-62
2022/12/08 04:27:28;;;;;;;13.93;6.88;;;;;;;12.34;48.67;100732.97;4882515;29;20505;-62
2022/12/08 04:29:54;;;;;;;15.18;7.35;;;;;;;12.38;48.66;100731.69;4882378;29;20111;-62
2022/12/08 04:32:19;;;;;;;17.10;8.48;;;;;;;12.37;48.74;100732.69;4897266;29;20024;-63
2022/12/08 04:34:45;;;;;;;16.88;7.47;;;;;;;12.35;47.90;100726.59;4881227;29;20101;-62
2022/12/08 04:37:10;;;;;;;12.40;7.43;;;;;;;12.37;48.32;100730.00;4884615;29;20043;-62
2022/12/08 04:39:35;;;;;;;19.25;7.93;;;;;;;12.39;48.15;100733.38;4902299;29;20521;-62
2022/12/08 04:42:01;;;;;;;14.55;7.28;;;;;;;12.34;47.65;100719.53;4901811;29;20092;-62
2022/12/08 04:44:26;;;;;;;19.10;7.18;;;;;;;12.34;48.77;100715.00;4886468;29;20696;-62
2022/12/08 04:46:51;;;;;;;16.65;7.57;;;;;;;12.33;47.77;100721.38;4870097;29;20047;-62
2022/12/08 04:49:17;;;;;;;18.35;7.45;;;;;;;12.32;48.26;100716.97;4885812;29;20498;-62
2022/12/08 04:51:42;;;;;;;12.82;6.85;;;;;;;12.31;48.13;100717.13;4902361;29;20036;-62
2022/12/08 04:54:08;;;;;;;24.48;8.15;;;;;;;12.34;48.14;100712.31;4900445;29;20036;-62
2022/12/08 04:56:33;;;;;;;15.48;7.47;;;;;;;12.35;48.49;100710.47;4900690;29;20115;-62
2022/12/08 04:58:58;;;;;;;13.88;6.40;;;;;;;12.36;48.79;100717.56;4900284;29;20035;-62
2022/12/08 05:01:24;;;;;;;16.17;6.90;;;;;;;12.36;47.92;100722.94;4900344;29;20060;-62
2022/12/08 05:03:49;;;;;;;14.07;6.82;;;;;;;12.38;47.98;100721.78;4900326;29;20093;-62
2022/12/08 05:06:14;;;;;;;19.60;7.53;;;;;;;12.39;48.82;100711.91;4901354;29;20040;-62
2022/12/08 05:08:41;;;;;;;13.02;6.80;;;;;;;12.37;48.54;100713.88;4900424;29;20183;-62
2022/12/08 05:11:09;;;;;;;15.23;7.72;;;;;;;12.35;48.58;100716.69;4869009;29;20049;-62
2022/12/08 05:13:34;;;;;;;20.25;7.72;;;;;;;12.33;48.26;100707.94;4885696;29;20056;-62
2022/12/08 05:16:05;;;;;;;14.32;7.85;;;;;;;12.32;48.34;100722.34;4884857;29;20071;-62
2022/12/08 05:18:30;;;;;;;17.77;7.47;;;;;;;12.32;48.04;100716.13;4899952;29;20084;-62
2022/12/08 05:20:56;;;;;;;16.92;8.40;;;;;;;12.31;47.76;100709.09;4869018;29;20057;-62
2022/12/08 05:23:21;;;;;;;18.92;7.70;;;;;;;12.31;48.64;100717.13;4885594;29;20025;-62
2022/12/08 05:25:46;;;;;;;15.18;7.85;;;;;;;12.24;47.88;100709.66;4900870;29;20462;-62
2022/12/08 05:28:12;;;;;;;14.07;6.90;;;;;;;12.27;48.46;100720.09;4900189;29;20033;-63
2022/12/08 05:30:37;;;;;;;13.82;5.80;;;;;;;12.24;48.36;100711.47;4900314;29;20404;-62
2022/12/08 05:33:02;;;;;;;14.57;6.85;;;;;;;12.22;47.90;100710.78;4900537;29;20169;-62
2022/12/08 05:35:28;;;;;;;18.35;7.15;;;;;;;12.27;48.57;100716.56;4900438;29;20024;-62
2022/12/08 05:37:53;;;;;;;14.95;6.88;;;;;;;12.22;48.50;100705.41;4901986;29;20063;-62
2022/12/08 05:40:19;;;;;;;14.15;6.47;;;;;;;12.20;48.23;100708.22;4885270;29;20088;-62
2022/12/08 05:42:44;;;;;;;15.77;7.20;;;;;;;12.19;47.64;100695.81;4900974;29;20108;-62
2022/12/08 05:45:10;;;;;;;15.98;7.32;;;;;;;12.22;48.44;100692.00;4900301;29;20435;-62
2022/12/08 05:47:35;;;;;;;15.45;8.43;;;;;;;12.22;47.75;100690.16;4901697;29;20032;-62
2022/12/08 05:50:00;;;;;;;16.27;6.60;;;;;;;12.19;47.71;100690.44;4884004;29;20032;-62
2022/12/08 05:52:26;;;;;;;17.95;7.80;;;;;;;12.21;47.21;100691.13;4900150;29;20036;-62
2022/12/08 05:54:52;;;;;;;15.68;7.07;;;;;;;12.18;48.59;100696.78;4899914;29;20407;-62
2022/12/08 05:57:17;;;;;;;12.13;6.50;;;;;;;12.15;48.70;100702.44;4899273;29;20092;-62
2022/12/08 05:59:43;;;;;;;20.25;6.85;;;;;;;12.12;47.71;100697.34;4900495;29;20036;-63
2022/12/08 06:02:08;;;;;;;15.38;5.88;;;;;;;12.13;47.90;100701.75;4901633;29;20079;-62
2022/12/08 06:04:34;;;;;;;18.55;7.13;;;;;;;12.14;47.88;100699.91;4899376;29;20037;-62
2022/12/08 06:06:59;;;;;;;14.13;5.45;;;;;;;12.13;47.60;100696.38;4899151;29;20037;-62
2022/12/08 06:09:25;;;;;;;14.43;6.00;;;;;;;12.15;47.53;100697.06;4900572;29;20063;-62
2022/12/08 06:11:50;;;;;;;10.50;4.63;;;;;;;12.18;48.08;100694.09;4883265;29;20392;-62
2022/12/08 06:14:16;;;;;;;13.23;5.88;;;;;;;12.16;48.45;100690.72;4900601;29;20071;-62
2022/12/08 06:16:41;;;;;;;12.55;5.72;;;;;;;12.15;47.58;100691.69;4884504;29;20494;-62
2022/12/08 06:19:06;;;;;;;13.77;5.88;;;;;;;12.17;47.54;100692.41;4900649;29;20044;-62
2022/12/08 06:21:32;;;;;;;10.65;5.70;;;;;;;12.16;47.52;100690.72;4900178;29;20055;-62
2022/12/08 06:23:57;;;;;;;14.98;6.47;;;;;;;12.13;48.23;100690.16;4898994;29;20065;-62
2022/12/08 06:26:23;;;;;;;13.65;6.55;;;;;;;12.14;47.50;100692.69;4899215;29;20036;-62
2022/12/08 06:28:49;;;;;;;16.20;6.32;;;;;;;12.15;47.50;100683.66;4899702;29;20040;-62
2022/12/08 06:31:17;;;;;;;13.48;5.93;;;;;;;12.14;47.64;100695.38;4899092;29;20040;-62
2022/12/08 06:33:42;;;;;;;16.30;7.22;;;;;;;12.12;47.82;100689.31;4899117;29;20456;-62
2022/12/08 06:36:10;;;;;;;16.55;7.03;;;;;;;12.10;48.10;100679.69;4898561;29;20060;-62
2022/12/08 06:38:36;;;;;;;18.05;7.35;;;;;;;12.11;47.68;100689.47;4883281;29;20110;-62
2022/12/08 06:41:01;;;;;;;20.30;7.70;;;;;;;12.11;48.50;100676.88;4899823;29;20044;-61
2022/12/08 06:43:26;;;;;;;20.95;7.28;;;;;;;12.11;47.54;100681.41;4898466;29;20096;-62
2022/12/08 06:45:52;;;;;;;20.55;7.85;;;;;;;12.10;48.32;100685.91;4867531;29;20124;-63
2022/12/08 06:48:17;;;;;;;18.85;7.65;;;;;;;12.11;47.65;100674.19;4898360;29;20033;-62
2022/12/08 06:50:43;;;;;;;18.27;8.50;;;;;;;12.12;48.05;100673.19;4898016;29;20033;-62
2022/12/08 06:53:11;;;;;;;17.42;7.55;;;;;;;12.12;47.61;100673.19;4867913;29;20035;-62
2022/12/08 06:55:41;;;;;;;15.65;7.53;;;;;;;12.13;48.59;100676.72;4899634;29;20033;-62
2022/12/08 06:58:06;;;;;;;16.13;7.70;;;;;;;12.10;47.65;100683.22;4883113;29;20045;-63
2022/12/08 07:00:32;;;;;;;20.75;8.98;;;;;;;12.05;48.39;100665.84;4898090;29;20037;-63
2022/12/08 07:02:57;;;;;;;15.32;7.10;;;;;;;12.00;47.48;100674.34;4898284;29;20075;-62
2022/12/08 07:05:22;;;;;;;14.80;6.55;;;;;;;11.97;48.61;100681.84;4898457;29;20475;-63
2022/12/08 07:07:48;;;;;;;17.38;7.40;;;;;;;11.94;48.42;100685.66;4882430;29;20036;-63
2022/12/08 07:10:13;;;;;;;18.58;7.80;;;;;;;11.91;47.41;100688.63;4882316;29;20052;-63
2022/12/08 07:12:39;;;;;;;35.22;12.27;;;;;;;11.90;47.94;100684.22;4897833;29;20043;-63
2022/12/08 07:15:05;;;;;;;26.67;11.48;;;;;;;11.87;47.95;100676.44;4899095;29;20052;-63
2022/12/08 07:17:30;;;;;;;24.77;9.43;;;;;;;11.89;48.32;100673.63;4882831;29;20028;-63
2022/12/08 07:19:55;;;;;;;33.45;12.50;;;;;;;11.91;48.03;100680.56;4882493;29;20131;-63
2022/12/08 07:22:21;;;;;;;16.27;8.18;;;;;;;11.93;47.69;100680.41;4897794;29;20060;-63
2022/12/08 07:24:46;;;;;;;24.02;8.52;;;;;;;11.89;47.71;100685.19;4882346;29;20036;-63
2022/12/08 07:27:11;;;;;;;19.08;8.43;;;;;;;11.82;47.64;100684.09;4898766;29;20092;-63
2022/12/08 07:29:37;;;;;;;23.02;8.50;;;;;;;11.86;48.24;100685.50;4882746;29;20032;-63
2022/12/08 07:32:02;;;;;;;23.67;10.48;;;;;;;11.86;48.47;100682.81;4900019;29;20553;-63
2022/12/08 07:34:28;;;;;;;31.60;12.20;;;;;;;11.86;48.44;100693.56;4898557;29;20411;-63
2022/12/08 07:36:53;;;;;;;31.70;12.27;;;;;;;11.86;48.01;100693.56;4899375;29;20059;-63
2022/12/08 07:39:18;;;;;;;26.92;10.55;;;;;;;11.83;47.94;100693.00;4898718;29;20432;-63
2022/12/08 07:41:44;;;;;;;25.05;10.05;;;;;;;11.86;47.76;100687.34;4883158;29;20043;-63
2022/12/08 07:44:10;;;;;;;20.92;7.55;;;;;;;11.85;47.65;100677.59;4899161;29;20086;-63
2022/12/08 07:46:35;;;;;;;21.35;10.55;;;;;;;11.84;48.28;100674.03;4898434;29;20491;-63
2022/12/08 07:49:00;;;;;;;20.10;8.68;;;;;;;11.88;47.78;100682.66;4883439;29;20052;-63
2022/12/08 07:51:26;;;;;;;18.65;9.70;;;;;;;11.90;48.17;100673.50;4899230;29;20407;-63
2022/12/08 07:53:51;;;;;;;20.48;9.90;;;;;;;11.92;47.59;100674.19;4897517;29;20037;-63
2022/12/08 07:56:17;;;;;;;21.75;10.55;;;;;;;11.92;47.76;100671.50;4898317;29;20116;-63
2022/12/08 07:58:44;;;;;;;30.75;12.32;;;;;;;11.87;47.48;100673.75;4897177;29;20045;-63
2022/12/08 08:01:20;;;;;;;23.02;10.63;;;;;;;11.89;48.33;100682.50;4881705;29;20043;-63
2022/12/08 08:03:45;;;;;;;20.48;8.52;;;;;;;11.85;48.58;100686.50;4897557;29;20052;-63
2022/12/08 08:06:11;;;;;;;19.60;9.45;;;;;;;11.82;47.81;100684.09;4897436;29;20395;-63
2022/12/08 08:08:36;;;;;;;16.58;6.60;;;;;;;11.80;47.61;100685.22;4898314;29;20124;-63
2022/12/08 08:11:05;;;;;;;21.98;10.80;;;;;;;11.80;48.26;100683.38;4881541;29;20487;-62
2022/12/08 08:13:30;;;;;;;17.17;7.60;;;;;;;11.79;47.99;100670.09;4897232;29;20115;-63
2022/12/08 08:16:05;;;;;;;14.70;7.63;;;;;;;11.84;47.58;100668.69;4899473;29;20072;-63
2022/12/08 08:18:30;;;;;;;20.67;8.63;;;;;;;11.88;47.70;100675.47;4881329;29;20067;-63
2022/12/08 08:20:56;;;;;;;18.27;8.00;;;;;;;11.91;47.70;100675.19;4881068;29;20084;-63
2022/12/08 08:23:21;;;;;;;16.02;7.40;;;;;;;11.94;48.23;100669.53;4897124;29;20036;-63
2022/12/08 08:25:46;;;;;;;17.60;8.93;;;;;;;11.96;47.86;100678.28;4897097;29;20179;-63
2022/12/08 08:28:12;;;;;;;14.57;6.63;;;;;;;11.98;47.75;100679.00;4897962;29;20044;-63
2022/12/08 08:30:37;;;;;;;19.08;7.35;;;;;;;12.01;47.82;100676.03;4896924;29;20508;-63
2022/12/08 08:33:03;;;;;;;15.27;7.85;;;;;;;12.03;47.69;100679.41;4898023;29;20036;-63
2022/12/08 08:35:28;;;;;;;18.05;7.82;;;;;;;12.06;47.64;100678.31;4898264;29;20033;-63
2022/12/08 08:37:53;;;;;;;20.20;7.85;;;;;;;12.08;47.92;100682.53;4881254;29;20487;-63
2022/12/08 08:40:19;;;;;;;19.90;7.05;;;;;;;12.09;47.68;100684.22;4881034;29;20410;-63
2022/12/08 08:42:44;;;;;;;14.13;6.97;;;;;;;12.10;47.81;100685.91;4898028;29;20033;-63
2022/12/08 08:45:10;;;;;;;13.77;6.90;;;;;;;12.10;47.13;100675.19;4897828;29;20047;-63
2022/12/08 08:47:35;;;;;;;14.00;6.80;;;;;;;12.11;47.84;100676.88;4881500;29;20037;-63
2022/12/08 08:50:01;;;;;;;11.68;5.90;;;;;;;12.12;47.20;100670.50;4865712;29;20491;-63
2022/12/08 08:52:26;;;;;;;13.93;5.95;;;;;;;12.10;48.03;100667.13;4897782;29;20124;-63
2022/12/08 08:54:51;;;;;;;14.23;5.43;;;;;;;12.11;48.14;100676.88;4897121;29;20096;-63
2022/12/08 08:57:17;;;;;;;16.13;6.07;;;;;;;12.09;47.72;100681.53;4881280;29;20128;-63
2022/12/08 08:59:42;;;;;;;17.65;8.00;;;;;;;12.10;47.90;100680.53;4898227;29;20039;-63
2022/12/08 09:02:15;;;;;;;12.65;6.00;;;;;;;12.10;47.52;100675.19;4882069;29;20128;-63
2022/12/08 09:04:41;;;;;;;18.73;6.75;;;;;;;12.08;47.25;100679.00;4897172;29;20040;-63
2022/12/08 09:07:06;;;;;;;15.68;7.45;;;;;;;12.06;47.32;100663.00;4882148;29;20462;-63
2022/12/08 09:09:32;;;;;;;14.70;6.45;;;;;;;12.07;48.13;100678.16;4896611;29;20029;-63
2022/12/08 09:11:57;;;;;;;16.27;8.55;;;;;;;12.07;47.62;100670.09;4896443;29;20501;-63
2022/12/08 09:14:22;;;;;;;21.25;9.02;;;;;;;12.06;47.88;100668.38;4896850;29;20032;-63
2022/12/08 09:16:48;;;;;;;15.63;5.78;;;;;;;12.09;48.05;100662.72;4896306;29;20041;-63
2022/12/08 09:19:13;;;;;;;13.57;7.07;;;;;;;12.08;47.27;100662.88;4896038;29;20407;-63
2022/12/08 09:21:39;;;;;;;70.88;20.00;;;;;;;12.06;47.91;100660.34;4894747;29;20096;-62
2022/12/08 09:24:04;;;;;;;41.20;15.65;;;;;;;12.07;47.59;100664.72;4900975;29;20117;-63
2022/12/08 09:26:30;;;;;;;21.15;7.40;;;;;;;12.10;47.96;100659.06;4884540;29;20029;-63
2022/12/08 09:28:56;;;;;;;32.47;11.48;;;;;;;12.11;47.72;100665.28;4899707;29;20060;-62
2022/12/08 09:31:22;;;;;;;23.75;9.43;;;;;;;12.13;48.30;100671.34;4900959;29;20503;-63
2022/12/08 09:33:48;;;;;;;19.20;6.40;;;;;;;12.14;47.98;100670.38;4899716;29;20037;-63
2022/12/08 09:36:13;;;;;;;14.75;6.95;;;;;;;12.15;48.23;100667.53;4883793;29;20521;-63
2022/12/08 09:38:39;;;;;;;15.57;7.07;;;;;;;12.15;47.67;100656.78;4899950;29;20037;-63
2022/12/08 09:41:26;;;;;;;19.30;7.40;;;;;;;12.25;47.34;100662.16;4899500;29;20507;-63
2022/12/08 09:44:29;;;;;;;19.60;5.90;;;;;;;12.32;47.07;100662.41;4869045;29;20040;-63
2022/12/08 09:46:55;;;;;;;17.77;6.22;;;;;;;12.34;47.88;100660.44;4899242;29;20040;-62
2022/12/08 09:49:32;;;;;;;12.43;6.10;;;;;;;12.41;47.76;100658.88;4899480;29;20503;-63
2022/12/08 09:51:58;;;;;;;15.50;7.65;;;;;;;12.43;47.36;100656.88;4899255;29;20511;-63
2022/12/08 09:54:33;;;;;;;12.80;5.40;;;;;;;12.47;47.28;100656.47;4899294;29;20049;-63
2022/12/08 09:57:00;;;;;;;14.75;6.72;;;;;;;12.50;47.65;100653.47;4899311;29;20061;-63
2022/12/08 09:59:31;;;;;;;16.35;6.47;;;;;;;12.51;47.33;100651.63;4899171;29;20111;-63
2022/12/08 10:01:56;;;;;;;11.30;5.40;;;;;;;12.51;46.89;100657.00;4883450;29;20452;-63
2022/12/08 10:04:31;;;;;;;9.93;5.45;;;;;;;12.52;47.14;100647.94;4883381;29;20035;-63
2022/12/08 10:07:03;;;;;;;12.55;5.00;;;;;;;12.54;47.81;100649.50;4883296;29;20061;-63
2022/12/08 10:09:44;;;;;;;8.93;5.88;;;;;;;12.54;47.89;100652.19;4867848;29;20025;-63
2022/12/08 10:12:15;;;;;;;16.88;6.70;;;;;;;12.56;47.29;100649.38;4883239;29;20052;-63
2022/12/08 10:15:09;;;;;;;12.93;5.50;;;;;;;12.58;47.05;100648.22;4900048;29;20137;-63
2022/12/08 10:17:37;;;;;;;12.23;5.05;;;;;;;12.60;47.21;100635.47;4883655;29;20028;-63
2022/12/08 10:20:18;;;;;;;15.85;4.93;;;;;;;12.65;47.79;100646.63;4882858;29;20436;-63
2022/12/08 10:22:45;;;;;;;15.73;5.45;;;;;;;12.68;47.56;100643.66;4883251;29;20039;-63
2022/12/08 10:25:29;;;;;;;10.52;4.97;;;;;;;12.70;48.03;100635.47;4868223;29;20033;-63
2022/12/08 10:27:55;;;;;;;13.32;5.75;;;;;;;12.75;46.99;100638.53;4883096;29;20092;-63
2022/12/08 10:30:21;;;;;;;12.85;5.10;;;;;;;12.75;47.50;100633.16;4883286;29;20124;-63
2022/12/08 10:32:52;;;;;;;10.25;5.40;;;;;;;12.76;46.75;100638.38;4883467;29;20025;-63
2022/12/08 10:35:20;;;;;;;17.60;5.72;;;;;;;12.74;47.80;100632.31;4867552;29;20029;-63
2022/12/08 10:37:56;;;;;;;17.73;5.28;;;;;;;12.80;47.90;100633.56;4882937;29;20044;-63
2022/12/08 10:40:21;;;;;;;14.77;5.25;;;;;;;12.87;46.98;100628.44;4899592;29;20123;-63
2022/12/08 10:42:52;;;;;;;11.45;5.57;;;;;;;12.97;47.06;100626.56;4883010;29;20119;-63
2022/12/08 10:45:46;;;;;;;16.20;4.60;;;;;;;13.09;46.46;100626.22;4883195;29;20040;-63
2022/12/08 10:48:25;;;;;;;14.77;5.15;;;;;;;13.25;46.37;100626.44;4882686;29;20032;-63
2022/12/08 10:50:51;;;;;;;9.25;4.18;;;;;;;13.39;46.72;100622.38;4882743;29;20115;-63
2022/12/08 10:53:21;;;;;;;8.60;4.97;;;;;;;13.50;46.13;100616.75;4899801;29;20059;-63
2022/12/08 10:55:49;;;;;;;12.68;5.88;;;;;;;13.59;46.55;100609.63;4899373;29;20129;-63
2022/12/08 10:58:28;;;;;;;15.25;4.65;;;;;;;13.69;46.61;100618.44;4882596;29;20403;-63
2022/12/08 11:01:00;;;;;;;13.65;5.13;;;;;;;13.73;46.28;100609.06;4899020;29;20459;-63
2022/12/08 11:03:29;;;;;;;13.25;5.65;;;;;;;13.79;46.80;100603.06;4867362;29;20153;-62
2022/12/08 11:05:56;;;;;;;11.20;5.05;;;;;;;13.84;45.91;100600.75;4882955;29;20415;-63
2022/12/08 11:08:21;;;;;;;14.90;5.22;;;;;;;13.84;46.49;100590.00;4867208;29;20032;-63
2022/12/08 11:10:47;;;;;;;13.77;6.13;;;;;;;13.90;46.79;100594.75;4866750;29;20659;-63
2022/12/08 11:13:19;;;;;;;11.07;4.68;;;;;;;13.91;46.34;100591.88;4882277;29;20410;-63
2022/12/08 11:15:45;;;;;;;13.43;5.67;;;;;;;13.86;46.46;100593.38;4882322;29;20036;-63
2022/12/08 11:18:27;;;;;;;9.65;5.35;;;;;;;13.80;47.20;100593.97;4882484;29;20036;-63
2022/12/08 11:21:08;;;;;;;10.30;5.20;;;;;;;13.77;46.64;100583.50;4880044;29;20056;-63
2022/12/08 11:23:35;;;;;;;16.75;4.80;;;;;;;13.76;46.22;100581.84;4880647;29;20040;-63
2022/12/08 11:26:10;;;;;;;8.70;4.40;;;;;;;13.74;46.03;100579.28;4878855;29;20033;-63
2022/12/08 11:28:36;;;;;;;17.35;5.95;;;;;;;13.70;46.39;100577.94;4879058;29;20033;-63